createdAt,value
2018-07-25T00:00:29.793Z,1007.68
2018-07-25T00:01:29.459Z,1007.71
2018-07-25T00:02:29.498Z,1007.68
2018-07-25T00:03:29.509Z,1007.68
2018-07-25T00:04:29.598Z,1007.66
2018-07-25T00:05:29.333Z,1007.70
2018-07-25T00:06:29.618Z,1007.67
2018-07-25T00:07:29.390Z,1007.67
2018-07-25T00:08:29.429Z,1007.63
2018-07-25T00:09:29.403Z,1007.69
2018-07-25T00:11:32.100Z,1007.67
2018-07-25T00:12:29.441Z,1007.69
2018-07-25T00:13:29.341Z,1007.62
2018-07-25T00:14:29.424Z,1007.68
2018-07-25T00:15:29.446Z,1007.63
2018-07-25T00:16:29.277Z,1007.66
2018-07-25T00:17:29.363Z,1007.63
2018-07-25T00:18:29.600Z,1007.62
2018-07-25T00:19:29.195Z,1007.64
2018-07-25T00:20:29.289Z,1007.62
2018-07-25T00:21:29.182Z,1007.63
2018-07-25T00:22:29.256Z,1007.65
2018-07-25T00:23:29.288Z,1007.64
2018-07-25T00:25:31.589Z,1007.63
2018-07-25T00:27:29.119Z,1007.61
2018-07-25T00:30:29.084Z,1007.61
2018-07-25T00:31:29.467Z,1007.61
2018-07-25T00:32:29.155Z,1007.61
2018-07-25T00:33:30.016Z,1007.64
2018-07-25T00:35:29.036Z,1007.62
2018-07-25T00:36:29.028Z,1007.66
2018-07-25T00:38:29.475Z,1007.65
2018-07-25T00:39:29.744Z,1007.68
2018-07-25T00:40:29.455Z,1007.65
2018-07-25T00:41:29.016Z,1007.62
2018-07-25T00:42:28.961Z,1007.62
2018-07-25T00:43:29.344Z,1007.63
2018-07-25T00:44:29.034Z,1007.63
2018-07-25T00:45:29.482Z,1007.63
2018-07-25T00:46:28.949Z,1007.64
2018-07-25T00:47:28.913Z,1007.64
2018-07-25T00:48:28.892Z,1007.67
2018-07-25T00:49:28.955Z,1007.65
2018-07-25T00:50:29.993Z,1007.63
2018-07-25T00:51:28.970Z,1007.65
2018-07-25T00:52:29.532Z,1007.63
2018-07-25T00:53:29.001Z,1007.63
2018-07-25T00:54:29.500Z,1007.62
2018-07-25T00:55:29.559Z,1007.61
2018-07-25T00:56:28.815Z,1007.63
2018-07-25T00:57:29.404Z,1007.62
2018-07-25T00:58:28.922Z,1007.66
2018-07-25T00:59:28.786Z,1007.62
2018-07-25T01:00:28.906Z,1007.59
2018-07-25T01:02:29.071Z,1007.63
2018-07-25T01:03:28.851Z,1007.60
2018-07-25T01:04:29.137Z,1007.64
2018-07-25T01:05:28.814Z,1007.66
2018-07-25T01:06:28.788Z,1007.62
2018-07-25T01:07:28.765Z,1007.62
2018-07-25T01:08:28.837Z,1007.63
2018-07-25T01:09:28.884Z,1007.65
2018-07-25T01:10:28.685Z,1007.63
2018-07-25T01:11:29.029Z,1007.64
2018-07-25T01:12:29.040Z,1007.61
2018-07-25T01:13:28.907Z,1007.62
2018-07-25T01:14:28.673Z,1007.66
2018-07-25T01:15:31.209Z,1007.66
2018-07-25T01:16:28.692Z,1007.65
2018-07-25T01:17:28.597Z,1007.69
2018-07-25T01:18:28.989Z,1007.66
2018-07-25T01:20:28.580Z,1007.68
2018-07-25T01:22:28.665Z,1007.67
2018-07-25T01:23:28.640Z,1007.65
2018-07-25T01:24:29.336Z,1007.68
2018-07-25T01:25:28.883Z,1007.69
2018-07-25T01:26:28.573Z,1007.68
2018-07-25T01:27:28.505Z,1007.67
2018-07-25T01:29:29.106Z,1007.70
2018-07-25T01:30:28.725Z,1007.66
2018-07-25T01:31:28.741Z,1007.72
2018-07-25T01:32:28.969Z,1007.70
2018-07-25T01:33:28.609Z,1007.70
2018-07-25T01:34:28.997Z,1007.73
2018-07-25T01:35:28.685Z,1007.72
2018-07-25T01:36:28.968Z,1007.76
2018-07-25T01:37:29.104Z,1007.77
2018-07-25T01:38:28.835Z,1007.73
2018-07-25T01:40:28.684Z,1007.79
2018-07-25T01:41:28.561Z,1007.77
2018-07-25T01:42:28.602Z,1007.79
2018-07-25T01:43:28.896Z,1007.81
2018-07-25T01:44:29.172Z,1007.79
2018-07-25T01:45:28.972Z,1007.78
2018-07-25T01:47:28.558Z,1007.81
2018-07-25T01:49:28.466Z,1007.86
2018-07-25T01:50:29.264Z,1007.87
2018-07-25T01:51:28.500Z,1007.85
2018-07-25T01:53:28.406Z,1007.88
2018-07-25T01:54:28.427Z,1007.93
2018-07-25T01:55:28.425Z,1007.89
2018-07-25T01:56:28.732Z,1007.90
2018-07-25T01:57:28.331Z,1007.92
2018-07-25T01:58:28.356Z,1007.93
2018-07-25T01:59:28.403Z,1007.87
2018-07-25T02:00:28.449Z,1007.90
2018-07-25T02:01:28.280Z,1007.88
2018-07-25T02:02:28.641Z,1007.91
2018-07-25T02:04:28.288Z,1007.89
2018-07-25T02:05:28.903Z,1007.87
2018-07-25T02:06:28.241Z,1007.88
2018-07-25T02:07:28.197Z,1007.89
2018-07-25T02:08:28.729Z,1007.93
2018-07-25T02:09:28.232Z,1007.92
2018-07-25T02:10:28.372Z,1007.95
2018-07-25T02:12:28.220Z,1007.93
2018-07-25T02:13:28.232Z,1007.94
2018-07-25T02:14:28.594Z,1007.93
2018-07-25T02:15:28.196Z,1007.95
2018-07-25T02:16:28.179Z,1007.97
2018-07-25T02:17:28.073Z,1007.96
2018-07-25T02:18:28.111Z,1008.00
2018-07-25T02:19:28.275Z,1008.00
2018-07-25T02:20:28.198Z,1008.04
2018-07-25T02:22:28.096Z,1008.04
2018-07-25T02:23:28.093Z,1008.03
2018-07-25T02:24:28.048Z,1008.03
2018-07-25T02:25:28.061Z,1008.01
2018-07-25T02:26:28.127Z,1008.01
2018-07-25T02:27:27.996Z,1008.03
2018-07-25T02:30:29.156Z,1008.02
2018-07-25T02:31:28.044Z,1008.02
2018-07-25T02:32:28.135Z,1008.01
2018-07-25T02:33:29.003Z,1008.00
2018-07-25T02:34:28.213Z,1007.99
2018-07-25T02:35:28.039Z,1008.01
2018-07-25T02:36:28.022Z,1008.02
2018-07-25T02:37:28.444Z,1008.05
2018-07-25T02:38:27.899Z,1008.06
2018-07-25T02:40:27.827Z,1008.05
2018-07-25T02:41:28.357Z,1008.02
2018-07-25T02:42:27.915Z,1008.04
2018-07-25T02:43:28.444Z,1008.05
2018-07-25T02:44:28.741Z,1008.09
2018-07-25T02:46:27.770Z,1008.08
2018-07-25T02:47:27.709Z,1008.05
2018-07-25T02:48:27.653Z,1008.04
2018-07-25T02:49:27.649Z,1008.05
2018-07-25T02:50:27.748Z,1008.06
2018-07-25T02:51:28.026Z,1008.05
2018-07-25T02:52:27.607Z,1008.04
2018-07-25T02:53:27.604Z,1008.03
2018-07-25T02:55:27.756Z,1008.00
2018-07-25T02:56:27.724Z,1008.01
2018-07-25T02:57:27.651Z,1008.04
2018-07-25T02:58:27.942Z,1008.03
2018-07-25T02:59:27.533Z,1008.06
2018-07-25T03:00:27.784Z,1008.05
2018-07-25T03:02:27.762Z,1008.05
2018-07-25T03:03:27.755Z,1008.05
2018-07-25T03:04:28.121Z,1008.03
2018-07-25T03:05:28.062Z,1008.03
2018-07-25T03:06:27.672Z,1008.02
2018-07-25T03:07:27.672Z,1008.03
2018-07-25T03:08:27.699Z,1008.05
2018-07-25T03:09:27.793Z,1008.03
2018-07-25T03:10:27.623Z,1008.03
2018-07-25T03:11:28.257Z,1008.05
2018-07-25T03:13:27.555Z,1008.03
2018-07-25T03:14:27.568Z,1008.06
2018-07-25T03:15:27.554Z,1008.04
2018-07-25T03:16:27.927Z,1008.01
2018-07-25T03:17:27.809Z,1008.02
2018-07-25T03:18:27.479Z,1008.02
2018-07-25T03:19:27.421Z,1008.04
2018-07-25T03:20:27.455Z,1008.06
2018-07-25T03:21:27.457Z,1008.05
2018-07-25T03:22:27.922Z,1008.07
2018-07-25T03:23:27.771Z,1008.07
2018-07-25T03:24:27.266Z,1008.07
2018-07-25T03:25:27.284Z,1008.07
2018-07-25T03:26:27.243Z,1008.05
2018-07-25T03:27:27.419Z,1008.11
2018-07-25T03:28:27.355Z,1008.10
2018-07-25T03:29:27.809Z,1008.14
2018-07-25T03:30:27.355Z,1008.18
2018-07-25T03:31:27.341Z,1008.16
2018-07-25T03:32:27.879Z,1008.16
2018-07-25T03:34:28.361Z,1008.15
2018-07-25T03:35:27.249Z,1008.14
2018-07-25T03:36:27.494Z,1008.14
2018-07-25T03:37:27.240Z,1008.16
2018-07-25T03:39:27.485Z,1008.13
2018-07-25T03:40:27.337Z,1008.13
2018-07-25T03:41:27.813Z,1008.15
2018-07-25T03:42:27.883Z,1008.15
2018-07-25T03:43:27.086Z,1008.13
2018-07-25T03:44:27.110Z,1008.18
2018-07-25T03:45:27.051Z,1008.16
2018-07-25T03:46:27.202Z,1008.18
2018-07-25T03:47:27.366Z,1008.20
2018-07-25T03:49:27.129Z,1008.21
2018-07-25T03:50:27.136Z,1008.20
2018-07-25T03:51:27.090Z,1008.20
2018-07-25T03:52:27.555Z,1008.21
2018-07-25T03:53:27.653Z,1008.21
2018-07-25T03:54:27.229Z,1008.20
2018-07-25T03:55:27.473Z,1008.21
2018-07-25T03:56:27.048Z,1008.23
2018-07-25T03:57:27.058Z,1008.22
2018-07-25T03:58:26.901Z,1008.22
2018-07-25T03:59:27.104Z,1008.20
2018-07-25T04:00:26.994Z,1008.18
2018-07-25T04:01:26.879Z,1008.20
2018-07-25T04:02:27.269Z,1008.22
2018-07-25T04:03:26.941Z,1008.20
2018-07-25T04:05:27.238Z,1008.21
2018-07-25T04:07:26.908Z,1008.18
2018-07-25T04:08:26.817Z,1008.19
2018-07-25T04:09:27.101Z,1008.21
2018-07-25T04:10:27.508Z,1008.20
2018-07-25T04:11:26.855Z,1008.19
2018-07-25T04:12:27.498Z,1008.21
2018-07-25T04:13:26.937Z,1008.18
2018-07-25T04:14:27.209Z,1008.20
2018-07-25T04:15:27.238Z,1008.22
2018-07-25T04:16:26.840Z,1008.21
2018-07-25T04:17:26.897Z,1008.25
2018-07-25T04:18:27.571Z,1008.26
2018-07-25T04:19:28.274Z,1008.26
2018-07-25T04:20:26.789Z,1008.26
2018-07-25T04:21:26.658Z,1008.27
2018-07-25T04:22:27.118Z,1008.35
2018-07-25T04:23:27.042Z,1008.33
2018-07-25T04:24:26.777Z,1008.31
2018-07-25T04:25:26.801Z,1008.35
2018-07-25T04:26:27.305Z,1008.33
2018-07-25T04:28:27.393Z,1008.35
2018-07-25T04:30:26.765Z,1008.30
2018-07-25T04:31:26.723Z,1008.35
2018-07-25T04:32:26.637Z,1008.32
2018-07-25T04:33:26.658Z,1008.33
2018-07-25T04:34:26.620Z,1008.34
2018-07-25T04:35:26.995Z,1008.34
2018-07-25T04:36:26.710Z,1008.35
2018-07-25T04:37:26.667Z,1008.39
2018-07-25T04:38:27.005Z,1008.41
2018-07-25T04:39:26.667Z,1008.39
2018-07-25T04:40:26.620Z,1008.37
2018-07-25T04:41:26.855Z,1008.41
2018-07-25T04:42:26.651Z,1008.42
2018-07-25T04:43:26.701Z,1008.38
2018-07-25T04:44:26.663Z,1008.44
2018-07-25T04:45:28.610Z,1008.41
2018-07-25T04:46:27.136Z,1008.41
2018-07-25T04:47:26.930Z,1008.49
2018-07-25T04:49:26.509Z,1008.44
2018-07-25T04:50:26.493Z,1008.43
2018-07-25T04:51:26.516Z,1008.45
2018-07-25T04:52:26.742Z,1008.44
2018-07-25T04:53:26.779Z,1008.44
2018-07-25T04:54:26.948Z,1008.41
2018-07-25T04:55:26.510Z,1008.47
2018-07-25T04:56:26.454Z,1008.50
2018-07-25T04:57:26.955Z,1008.48
2018-07-25T04:58:26.462Z,1008.51
2018-07-25T05:01:26.921Z,1008.51
2018-07-25T05:02:26.897Z,1008.55
2018-07-25T05:03:26.349Z,1008.54
2018-07-25T05:04:26.306Z,1008.54
2018-07-25T05:05:26.677Z,1008.54
2018-07-25T05:06:26.312Z,1008.56
2018-07-25T05:07:26.311Z,1008.59
2018-07-25T05:08:26.207Z,1008.61
2018-07-25T05:09:26.314Z,1008.61
2018-07-25T05:10:26.483Z,1008.65
2018-07-25T05:12:26.631Z,1008.63
2018-07-25T05:13:26.348Z,1008.60
2018-07-25T05:14:26.406Z,1008.59
2018-07-25T05:15:26.264Z,1008.64
2018-07-25T05:16:26.201Z,1008.62
2018-07-25T05:17:26.239Z,1008.66
2018-07-25T05:18:26.812Z,1008.68
2018-07-25T05:19:26.194Z,1008.65
2018-07-25T05:20:26.236Z,1008.65
2018-07-25T05:21:26.206Z,1008.70
2018-07-25T05:23:26.113Z,1008.70
2018-07-25T05:25:26.525Z,1008.72
2018-07-25T05:26:26.234Z,1008.74
2018-07-25T05:27:26.082Z,1008.70
2018-07-25T05:28:26.060Z,1008.73
2018-07-25T05:29:26.062Z,1008.74
2018-07-25T05:30:26.675Z,1008.75
2018-07-25T05:31:26.027Z,1008.77
2018-07-25T05:32:26.491Z,1008.77
2018-07-25T05:33:26.085Z,1008.77
2018-07-25T05:34:26.008Z,1008.80
2018-07-25T05:35:26.000Z,1008.84
2018-07-25T05:36:26.013Z,1008.83
2018-07-25T05:37:25.880Z,1008.82
2018-07-25T05:38:26.367Z,1008.79
2018-07-25T05:39:26.140Z,1008.81
2018-07-25T05:40:26.081Z,1008.79
2018-07-25T05:41:25.937Z,1008.82
2018-07-25T05:42:25.922Z,1008.81
2018-07-25T05:43:27.716Z,1008.82
2018-07-25T05:44:26.022Z,1008.76
2018-07-25T05:45:26.249Z,1008.77
2018-07-25T05:46:25.901Z,1008.78
2018-07-25T05:47:25.778Z,1008.76
2018-07-25T05:48:25.848Z,1008.77
2018-07-25T05:49:26.016Z,1008.78
2018-07-25T05:50:25.848Z,1008.83
2018-07-25T05:51:25.965Z,1008.83
2018-07-25T05:52:26.034Z,1008.86
2018-07-25T05:53:25.716Z,1008.86
2018-07-25T05:54:25.712Z,1008.90
2018-07-25T05:55:25.704Z,1008.90
2018-07-25T05:56:26.348Z,1008.88
2018-07-25T05:57:25.778Z,1008.89
2018-07-25T05:58:25.675Z,1008.89
2018-07-25T05:59:25.964Z,1008.87
2018-07-25T06:00:25.653Z,1008.89
2018-07-25T06:01:25.639Z,1008.92
2018-07-25T06:02:26.285Z,1008.93
2018-07-25T06:03:25.748Z,1008.92
2018-07-25T06:04:25.909Z,1008.95
2018-07-25T06:05:25.912Z,1008.94
2018-07-25T06:06:25.596Z,1008.94
2018-07-25T06:07:38.354Z,1008.95
2018-07-25T06:08:27.098Z,1008.97
2018-07-25T06:09:26.218Z,1008.92
2018-07-25T06:10:25.564Z,1008.90
2018-07-25T06:11:26.055Z,1008.97
2018-07-25T06:12:25.548Z,1008.97
2018-07-25T06:13:25.532Z,1008.93
2018-07-25T06:14:26.233Z,1008.96
2018-07-25T06:15:25.559Z,1008.97
2018-07-25T06:16:25.518Z,1008.93
2018-07-25T06:17:25.791Z,1008.96
2018-07-25T06:18:25.482Z,1008.96
2018-07-25T06:19:25.481Z,1008.98
2018-07-25T06:20:25.652Z,1008.99
2018-07-25T06:21:25.512Z,1009.02
2018-07-25T06:22:25.555Z,1008.98
2018-07-25T06:23:25.744Z,1009.03
2018-07-25T06:25:25.421Z,1008.99
2018-07-25T06:26:25.518Z,1009.02
2018-07-25T06:27:25.500Z,1009.02
2018-07-25T06:28:25.527Z,1009.04
2018-07-25T06:29:25.382Z,1009.01
2018-07-25T06:30:25.754Z,1009.01
2018-07-25T06:31:25.401Z,1009.02
2018-07-25T06:32:25.363Z,1009.01
2018-07-25T06:33:25.461Z,1009.03
2018-07-25T06:34:26.048Z,1009.00
2018-07-25T06:35:25.341Z,1009.02
2018-07-25T06:36:25.625Z,1009.04
2018-07-25T06:37:25.320Z,1009.07
2018-07-25T06:38:25.519Z,1009.05
2018-07-25T06:39:25.510Z,1009.07
2018-07-25T06:40:25.541Z,1009.08
2018-07-25T06:41:25.279Z,1009.08
2018-07-25T06:42:25.580Z,1009.06
2018-07-25T06:43:25.358Z,1009.04
2018-07-25T06:44:25.255Z,1009.07
2018-07-25T06:45:25.905Z,1009.06
2018-07-25T06:46:25.499Z,1009.06
2018-07-25T06:47:28.271Z,1009.10
2018-07-25T06:48:28.558Z,1009.06
2018-07-25T06:49:25.215Z,1009.08
2018-07-25T06:50:26.627Z,1009.10
2018-07-25T06:51:25.405Z,1009.11
2018-07-25T06:52:25.190Z,1009.11
2018-07-25T06:53:25.182Z,1009.11
2018-07-25T06:54:25.692Z,1009.10
2018-07-25T06:55:25.773Z,1009.14
2018-07-25T06:56:25.164Z,1009.13
2018-07-25T06:57:25.295Z,1009.14
2018-07-25T06:58:44.448Z,1009.16
2018-07-25T06:59:25.251Z,1009.17
2018-07-25T07:00:25.437Z,1009.14
2018-07-25T07:01:25.725Z,1009.13
2018-07-25T07:02:26.535Z,1009.12
2018-07-25T07:03:25.812Z,1009.14
2018-07-25T07:04:25.352Z,1009.15
2018-07-25T07:05:25.098Z,1009.16
2018-07-25T07:06:25.076Z,1009.15
2018-07-25T07:07:25.072Z,1009.16
2018-07-25T07:08:25.746Z,1009.15
2018-07-25T07:09:25.262Z,1009.20
2018-07-25T07:10:25.153Z,1009.21
2018-07-25T07:11:25.144Z,1009.21
2018-07-25T07:12:25.438Z,1009.25
2018-07-25T07:13:25.033Z,1009.24
2018-07-25T07:14:25.026Z,1009.26
2018-07-25T07:16:25.099Z,1009.28
2018-07-25T07:17:25.152Z,1009.29
2018-07-25T07:18:25.600Z,1009.29
2018-07-25T07:19:24.976Z,1009.30
2018-07-25T07:20:25.581Z,1009.32
2018-07-25T07:21:28.009Z,1009.33
2018-07-25T07:22:25.261Z,1009.35
2018-07-25T07:23:25.051Z,1009.38
2018-07-25T07:24:25.292Z,1009.38
2018-07-25T07:25:24.937Z,1009.40
2018-07-25T07:26:24.921Z,1009.40
2018-07-25T07:27:24.933Z,1009.40
2018-07-25T07:28:24.960Z,1009.43
2018-07-25T07:29:25.006Z,1009.42
2018-07-25T07:30:25.191Z,1009.43
2018-07-25T07:31:25.133Z,1009.42
2018-07-25T07:32:24.879Z,1009.42
2018-07-25T07:33:24.876Z,1009.42
2018-07-25T07:34:24.975Z,1009.42
2018-07-25T07:35:25.164Z,1009.41
2018-07-25T07:36:25.157Z,1009.40
2018-07-25T07:37:24.875Z,1009.41
2018-07-25T07:38:24.840Z,1009.41
2018-07-25T07:39:24.827Z,1009.41
2018-07-25T07:40:24.876Z,1009.40
2018-07-25T07:41:27.990Z,1009.41
2018-07-25T07:42:25.122Z,1009.40
2018-07-25T07:43:24.794Z,1009.42
2018-07-25T07:46:24.904Z,1009.48
2018-07-25T07:47:25.074Z,1009.48
2018-07-25T07:48:28.346Z,1009.49
2018-07-25T07:49:31.076Z,1009.49
2018-07-25T07:50:24.947Z,1009.51
2018-07-25T07:51:44.037Z,1009.48
2018-07-25T07:52:25.012Z,1009.50
2018-07-25T07:53:26.224Z,1009.47
2018-07-25T07:54:25.268Z,1009.51
2018-07-25T07:55:26.227Z,1009.53
2018-07-25T07:56:25.005Z,1009.54
2018-07-25T07:57:24.704Z,1009.53
2018-07-25T07:58:24.697Z,1009.50
2018-07-25T07:59:24.796Z,1009.47
2018-07-25T08:00:24.685Z,1009.49
2018-07-25T08:01:24.724Z,1009.49
2018-07-25T08:02:24.764Z,1009.58
2018-07-25T08:03:24.663Z,1009.58
2018-07-25T08:04:24.658Z,1009.61
2018-07-25T08:05:24.648Z,1009.63
2018-07-25T08:06:26.357Z,1009.63
2018-07-25T08:07:24.727Z,1009.59
2018-07-25T08:08:24.989Z,1009.68
2018-07-25T08:09:24.624Z,1009.67
2018-07-25T08:10:24.620Z,1009.69
2018-07-25T08:11:24.803Z,1009.66
2018-07-25T08:12:25.508Z,1009.66
2018-07-25T08:13:43.794Z,1009.65
2018-07-25T08:14:25.298Z,1009.65
2018-07-25T08:15:24.881Z,1009.67
2018-07-25T08:16:24.573Z,1009.69
2018-07-25T08:17:24.578Z,1009.71
2018-07-25T08:18:24.573Z,1009.68
2018-07-25T08:19:25.170Z,1009.70
2018-07-25T08:21:26.066Z,1009.69
2018-07-25T08:22:37.579Z,1009.67
2018-07-25T08:23:24.530Z,1009.73
2018-07-25T08:24:24.826Z,1009.67
2018-07-25T08:25:50.270Z,1009.66
2018-07-25T08:26:30.792Z,1009.68
2018-07-25T08:28:24.605Z,1009.68
2018-07-25T08:29:24.600Z,1009.67
2018-07-25T08:30:24.852Z,1009.67
2018-07-25T08:31:24.694Z,1009.64
2018-07-25T08:32:24.492Z,1009.69
2018-07-25T08:33:24.494Z,1009.69
2018-07-25T08:34:24.582Z,1009.70
2018-07-25T08:35:25.937Z,1009.71
2018-07-25T08:36:24.774Z,1009.71
2018-07-25T08:37:24.466Z,1009.70
2018-07-25T08:38:24.466Z,1009.70
2018-07-25T08:39:24.462Z,1009.70
2018-07-25T08:40:24.552Z,1009.71
2018-07-25T08:41:24.552Z,1009.71
2018-07-25T08:42:24.998Z,1009.74
2018-07-25T08:44:37.175Z,1009.72
2018-07-25T08:45:27.468Z,1009.78
2018-07-25T08:46:24.423Z,1009.81
2018-07-25T08:47:25.128Z,1009.81
2018-07-25T08:48:24.825Z,1010.58
2018-07-25T08:49:30.686Z,1011.55
2018-07-25T08:50:30.685Z,1011.48
2018-07-25T08:51:24.423Z,1011.37
2018-07-25T08:52:50.142Z,1011.31
2018-07-25T08:53:24.608Z,1011.18
2018-07-25T08:56:25.194Z,1009.82
2018-07-25T08:57:24.990Z,1009.85
2018-07-25T08:58:27.683Z,1009.95
2018-07-25T08:59:37.949Z,1009.96
2018-07-25T09:00:25.311Z,1009.96
2018-07-25T09:01:24.991Z,1009.95
2018-07-25T09:02:25.864Z,1009.96
2018-07-25T09:08:27.474Z,1009.86
2018-07-25T09:09:24.577Z,1009.88
2018-07-25T09:10:24.897Z,1009.90
2018-07-25T09:11:25.777Z,1009.90
2018-07-25T09:12:27.391Z,1009.90
2018-07-25T09:13:24.994Z,1009.88
2018-07-25T09:14:25.403Z,1009.86
2018-07-25T09:15:24.951Z,1009.94
2018-07-25T09:16:24.344Z,1009.94
2018-07-25T09:17:24.654Z,1009.95
2018-07-25T09:18:24.592Z,1009.96
2018-07-25T09:19:27.377Z,1009.94
2018-07-25T09:20:24.638Z,1009.94
2018-07-25T09:21:24.334Z,1009.97
2018-07-25T09:22:24.333Z,1010.05
2018-07-25T09:23:24.937Z,1010.02
2018-07-25T09:24:26.842Z,1010.22
2018-07-25T09:25:24.449Z,1010.52
2018-07-25T09:26:24.627Z,1010.36
2018-07-25T09:27:24.336Z,1010.64
2018-07-25T09:28:24.333Z,1010.75
2018-07-25T09:29:24.532Z,1010.18
2018-07-25T09:30:24.572Z,1010.13
2018-07-25T09:31:24.370Z,1010.02
2018-07-25T09:32:24.327Z,1009.99
2018-07-25T09:33:24.620Z,1009.96
2018-07-25T09:34:24.593Z,1010.00
2018-07-25T09:35:24.324Z,1010.00
2018-07-25T09:36:25.122Z,1009.95
2018-07-25T09:37:24.320Z,1009.95
2018-07-25T09:38:24.522Z,1009.96
2018-07-25T09:39:24.612Z,1009.96
2018-07-25T09:41:24.933Z,1010.05
2018-07-25T09:42:24.417Z,1009.99
2018-07-25T09:43:25.017Z,1010.01
2018-07-25T09:44:24.317Z,1009.99
2018-07-25T09:45:25.217Z,1009.94
2018-07-25T09:46:24.316Z,1010.05
2018-07-25T09:47:30.587Z,1010.04
2018-07-25T09:48:24.368Z,1010.01
2018-07-25T09:49:24.620Z,1010.08
2018-07-25T09:50:30.602Z,1010.08
2018-07-25T09:51:24.618Z,1010.04
2018-07-25T09:52:30.578Z,1010.16
2018-07-25T09:53:24.311Z,1010.80
2018-07-25T09:54:24.413Z,1011.55
2018-07-25T09:55:24.418Z,1011.06
2018-07-25T09:56:24.423Z,1011.68
2018-07-25T09:57:24.617Z,1011.79
2018-07-25T09:58:24.321Z,1011.90
2018-07-25T09:59:24.314Z,1012.12
2018-07-25T10:00:24.422Z,1012.18
2018-07-25T10:01:24.418Z,1012.22
2018-07-25T10:02:24.319Z,1012.09
2018-07-25T10:03:24.631Z,1012.22
2018-07-25T10:04:24.320Z,1012.31
2018-07-25T10:05:24.323Z,1012.21
2018-07-25T10:06:24.401Z,1012.21
2018-07-25T10:07:24.449Z,1012.18
2018-07-25T10:08:24.342Z,1012.06
2018-07-25T10:09:24.632Z,1012.14
2018-07-25T10:10:27.365Z,1012.23
2018-07-25T10:11:30.597Z,1012.28
2018-07-25T10:12:24.739Z,1012.06
2018-07-25T10:13:24.429Z,1011.99
2018-07-25T10:14:24.337Z,1012.14
2018-07-25T10:15:30.909Z,1012.08
2018-07-25T10:16:30.604Z,1012.14
2018-07-25T10:17:24.344Z,1012.17
2018-07-25T10:18:25.009Z,1012.05
2018-07-25T10:19:24.451Z,1011.98
2018-07-25T10:20:24.551Z,1011.91
2018-07-25T10:21:58.460Z,1011.79
2018-07-25T10:22:24.576Z,1011.65
2018-07-25T10:23:24.367Z,1011.73
2018-07-25T10:24:24.451Z,1011.84
2018-07-25T10:25:25.807Z,1011.67
2018-07-25T10:26:24.368Z,1011.59
2018-07-25T10:27:24.781Z,1011.62
2018-07-25T10:28:24.395Z,1011.46
2018-07-25T10:29:24.399Z,1011.31
2018-07-25T10:30:24.978Z,1011.27
2018-07-25T10:31:50.177Z,1011.17
2018-07-25T10:32:24.672Z,1010.99
2018-07-25T10:33:25.972Z,1009.87
2018-07-25T10:34:43.585Z,1010.27
2018-07-25T10:35:24.376Z,1009.76
2018-07-25T10:36:24.403Z,1009.74
2018-07-25T10:37:24.415Z,1010.74
2018-07-25T10:38:24.492Z,1009.70
2018-07-25T10:39:24.770Z,1009.68
2018-07-25T10:40:24.608Z,1009.68
2018-07-25T10:41:24.399Z,1009.62
2018-07-25T10:42:24.454Z,1009.57
2018-07-25T10:43:24.408Z,1009.57
2018-07-25T10:44:24.409Z,1009.53
2018-07-25T10:45:24.714Z,1009.57
2018-07-25T10:46:24.515Z,1009.63
2018-07-25T10:47:27.121Z,1009.65
2018-07-25T10:48:24.417Z,1009.92
2018-07-25T10:49:24.428Z,1009.52
2018-07-25T10:50:24.425Z,1009.88
2018-07-25T10:51:24.727Z,1009.67
2018-07-25T10:52:24.429Z,1009.61
2018-07-25T10:53:25.883Z,1009.59
2018-07-25T10:54:24.434Z,1009.57
2018-07-25T10:55:24.446Z,1009.55
2018-07-25T10:56:24.443Z,1009.54
2018-07-25T10:57:24.743Z,1009.56
2018-07-25T10:58:25.871Z,1009.56
2018-07-25T10:59:27.114Z,1009.62
2018-07-25T11:00:24.455Z,1010.17
2018-07-25T11:02:24.469Z,1009.70
2018-07-25T11:03:24.764Z,1009.53
2018-07-25T11:04:24.468Z,1009.53
2018-07-25T11:05:24.830Z,1009.77
2018-07-25T11:06:24.483Z,1009.57
2018-07-25T11:07:24.485Z,1009.50
2018-07-25T11:08:24.490Z,1009.69
2018-07-25T11:09:24.990Z,1010.11
2018-07-25T11:10:24.504Z,1009.37
2018-07-25T11:11:24.544Z,1010.22
2018-07-25T11:12:24.608Z,1009.97
2018-07-25T11:13:24.580Z,1009.76
2018-07-25T11:14:24.513Z,1009.79
2018-07-25T11:15:25.012Z,1009.65
2018-07-25T11:16:24.682Z,1010.41
2018-07-25T11:17:24.621Z,1009.52
2018-07-25T11:18:24.879Z,1009.43
2018-07-25T11:19:24.627Z,1009.48
2018-07-25T11:20:24.529Z,1009.42
2018-07-25T11:21:24.833Z,1009.43
2018-07-25T11:22:24.548Z,1009.43
2018-07-25T11:23:24.541Z,1009.44
2018-07-25T11:24:24.603Z,1009.48
2018-07-25T11:25:25.852Z,1009.46
2018-07-25T11:26:30.823Z,1009.44
2018-07-25T11:27:31.129Z,1009.48
2018-07-25T11:28:25.979Z,1009.47
2018-07-25T11:29:25.182Z,1009.37
2018-07-25T11:30:24.672Z,1009.33
2018-07-25T11:31:24.678Z,1010.12
2018-07-25T11:32:26.071Z,1009.15
2018-07-25T11:33:24.899Z,1009.01
2018-07-25T11:34:24.592Z,1009.29
2018-07-25T11:35:24.602Z,1009.26
2018-07-25T11:36:25.063Z,1009.21
2018-07-25T11:37:24.605Z,1010.10
2018-07-25T11:38:24.617Z,1009.36
2018-07-25T11:39:24.918Z,1009.32
2018-07-25T11:40:24.623Z,1009.29
2018-07-25T11:41:24.633Z,1009.31
2018-07-25T11:42:24.733Z,1009.33
2018-07-25T11:43:26.153Z,1009.34
2018-07-25T11:44:24.902Z,1009.25
2018-07-25T11:45:24.945Z,1009.35
2018-07-25T11:46:24.671Z,1009.32
2018-07-25T11:47:24.659Z,1009.34
2018-07-25T11:48:24.666Z,1009.41
2018-07-25T11:49:24.771Z,1009.37
2018-07-25T11:50:24.910Z,1009.32
2018-07-25T11:51:25.034Z,1009.40
2018-07-25T11:52:24.685Z,1009.41
2018-07-25T11:53:24.696Z,1009.21
2018-07-25T11:54:24.700Z,1009.32
2018-07-25T11:55:24.854Z,1009.25
2018-07-25T11:56:24.812Z,1009.33
2018-07-25T11:57:25.068Z,1009.42
2018-07-25T11:58:24.917Z,1009.42
2018-07-25T11:59:24.730Z,1009.36
2018-07-25T12:00:25.342Z,1008.92
2018-07-25T12:01:24.887Z,1008.96
2018-07-25T12:02:24.846Z,1009.45
2018-07-25T12:03:26.512Z,1009.01
2018-07-25T12:04:24.752Z,1008.98
2018-07-25T12:05:24.757Z,1009.46
2018-07-25T12:06:24.768Z,1008.97
2018-07-25T12:07:24.812Z,1008.98
2018-07-25T12:08:24.913Z,1008.96
2018-07-25T12:09:25.140Z,1008.95
2018-07-25T12:10:25.040Z,1009.00
2018-07-25T12:11:24.796Z,1009.00
2018-07-25T12:12:24.802Z,1008.99
2018-07-25T12:13:24.799Z,1008.98
2018-07-25T12:14:24.803Z,1008.96
2018-07-25T12:15:25.114Z,1008.96
2018-07-25T12:16:25.096Z,1008.97
2018-07-25T12:17:25.745Z,1009.44
2018-07-25T12:18:25.431Z,1009.18
2018-07-25T12:19:24.830Z,1009.27
2018-07-25T12:20:27.859Z,1009.34
2018-07-25T12:21:25.184Z,1009.34
2018-07-25T12:22:24.949Z,1009.44
2018-07-25T12:23:25.495Z,1009.32
2018-07-25T12:24:27.545Z,1009.36
2018-07-25T12:25:24.839Z,1009.34
2018-07-25T12:26:24.852Z,1009.32
2018-07-25T12:27:25.159Z,1009.35
2018-07-25T12:28:24.852Z,1009.33
2018-07-25T12:29:24.853Z,1009.30
2018-07-25T12:30:24.912Z,1009.26
2018-07-25T12:31:26.332Z,1009.22
2018-07-25T12:32:24.876Z,1009.25
2018-07-25T12:33:25.178Z,1009.29
2018-07-25T12:35:24.889Z,1009.28
2018-07-25T12:36:24.897Z,1009.23
2018-07-25T12:37:24.990Z,1009.23
2018-07-25T12:38:25.001Z,1009.20
2018-07-25T12:39:27.653Z,1009.24
2018-07-25T12:40:24.906Z,1009.20
2018-07-25T12:41:24.908Z,1009.15
2018-07-25T12:42:24.916Z,1009.19
2018-07-25T12:43:24.929Z,1009.11
2018-07-25T12:44:24.942Z,1009.16
2018-07-25T12:45:25.040Z,1009.17
2018-07-25T12:46:25.295Z,1008.68
2018-07-25T12:47:24.945Z,1008.69
2018-07-25T12:48:24.998Z,1009.17
2018-07-25T12:49:24.955Z,1009.09
2018-07-25T12:50:24.962Z,1009.13
2018-07-25T12:51:25.798Z,1009.09
2018-07-25T12:52:25.291Z,1009.06
2018-07-25T12:53:24.983Z,1009.04
2018-07-25T12:54:24.992Z,1009.07
2018-07-25T12:55:24.996Z,1009.06
2018-07-25T12:56:24.998Z,1009.06
2018-07-25T12:57:25.109Z,1008.96
2018-07-25T12:58:25.360Z,1008.98
2018-07-25T12:59:25.026Z,1008.97
2018-07-25T13:00:25.031Z,1008.98